createdAt,value
2017-11-03T00:01:50.729Z,100924
2017-11-03T00:04:22.210Z,100926
2017-11-03T00:06:52.545Z,100926
2017-11-03T00:09:22.618Z,100933
2017-11-03T00:11:52.234Z,100933
2017-11-03T00:14:22.666Z,100933
2017-11-03T00:16:55.601Z,100935
2017-11-03T00:19:25.117Z,100936
2017-11-03T00:21:53.801Z,100925
2017-11-03T00:24:23.549Z,100944
2017-11-03T00:26:52.943Z,100933
2017-11-03T00:29:23.014Z,100930
2017-11-03T00:31:52.132Z,100943
2017-11-03T00:34:22.665Z,100942
2017-11-03T00:36:51.592Z,100932
2017-11-03T00:39:21.741Z,100940
2017-11-03T00:41:50.055Z,100935
2017-11-03T00:44:18.958Z,100931
2017-11-03T00:46:47.994Z,100911
2017-11-03T00:49:16.947Z,100937
2017-11-03T00:51:46.613Z,100924
2017-11-03T00:54:17.703Z,100943
2017-11-03T00:56:47.205Z,100935
2017-11-03T00:59:17.644Z,100937
2017-11-03T01:01:47.232Z,100943
2017-11-03T01:04:16.974Z,100950
2017-11-03T01:06:50.180Z,100949
2017-11-03T01:09:19.084Z,100956
2017-11-03T01:11:48.756Z,100954
2017-11-03T01:14:18.549Z,100954
2017-11-03T01:16:47.248Z,100947
2017-11-03T01:19:16.945Z,100946
2017-11-03T01:21:45.820Z,100947
2017-11-03T01:24:19.436Z,100947
2017-11-03T01:26:48.412Z,100947
2017-11-03T01:29:16.709Z,100959
2017-11-03T01:31:46.222Z,100960
2017-11-03T01:34:14.792Z,100968
2017-11-03T01:36:44.100Z,100970
2017-11-03T01:39:17.161Z,100961
2017-11-03T01:41:45.497Z,100965
2017-11-03T01:44:15.068Z,100967
2017-11-03T01:46:44.112Z,100964
2017-11-03T01:49:15.052Z,100969
2017-11-03T01:51:44.140Z,100966
2017-11-03T01:54:13.316Z,100960
2017-11-03T01:56:42.705Z,100968
2017-11-03T01:59:13.783Z,100977
2017-11-03T02:01:42.848Z,100978
2017-11-03T02:04:12.369Z,100974
2017-11-03T02:06:42.651Z,100972
2017-11-03T02:09:11.743Z,100976
2017-11-03T02:11:41.118Z,100975
2017-11-03T02:14:10.715Z,100969
2017-11-03T02:16:39.356Z,100980
2017-11-03T02:19:09.758Z,100978
2017-11-03T02:21:39.931Z,100971
2017-11-03T02:24:16.583Z,100973
2017-11-03T02:26:48.865Z,100964
2017-11-03T02:29:18.186Z,100979
2017-11-03T02:31:47.175Z,100980
2017-11-03T02:34:17.392Z,100981
2017-11-03T02:36:45.729Z,100984
2017-11-03T02:39:14.357Z,100988
2017-11-03T02:41:43.527Z,100985
2017-11-03T02:44:11.804Z,100990
2017-11-03T02:46:41.393Z,100981
2017-11-03T02:49:11.101Z,100989
2017-11-03T02:51:41.100Z,100997
2017-11-03T02:54:10.413Z,100995
2017-11-03T02:56:43.128Z,100990
2017-11-03T02:59:12.178Z,100992
2017-11-03T03:01:41.028Z,100996
2017-11-03T03:04:10.064Z,100993
2017-11-03T03:06:39.095Z,100998
2017-11-03T03:09:08.367Z,101004
2017-11-03T03:11:38.407Z,100999
2017-11-03T03:14:07.048Z,100996
2017-11-03T03:16:37.192Z,101000
2017-11-03T03:19:05.561Z,101007
2017-11-03T03:21:34.328Z,101000
2017-11-03T03:24:06.572Z,101004
2017-11-03T03:26:36.980Z,100997
2017-11-03T03:29:06.524Z,101005
2017-11-03T03:31:34.876Z,101001
2017-11-03T03:34:04.088Z,101006
2017-11-03T03:36:32.821Z,101011
2017-11-03T03:39:02.120Z,101005
2017-11-03T03:41:31.048Z,101010
2017-11-03T03:43:59.716Z,101001
2017-11-03T03:46:28.924Z,101008
2017-11-03T03:48:58.739Z,101012
2017-11-03T03:51:29.156Z,101007
2017-11-03T03:53:58.500Z,101012
2017-11-03T03:56:33.243Z,101008
2017-11-03T03:59:02.388Z,101018
2017-11-03T04:01:31.049Z,101018
2017-11-03T04:03:59.640Z,101019
2017-11-03T04:06:28.262Z,101018
2017-11-03T04:08:57.212Z,101026
2017-11-03T04:11:25.655Z,101021
2017-11-03T04:13:56.280Z,101025
2017-11-03T04:16:26.277Z,101015
2017-11-03T04:18:56.228Z,101021
2017-11-03T04:21:25.700Z,101018
2017-11-03T04:23:55.020Z,101025
2017-11-03T04:26:24.715Z,101017
2017-11-03T04:29:01.645Z,101013
2017-11-03T04:31:31.133Z,101016
2017-11-03T04:33:59.759Z,101012
2017-11-03T04:36:28.364Z,101011
2017-11-03T04:38:58.467Z,101012
2017-11-03T04:41:27.996Z,101013
2017-11-03T04:43:58.137Z,101015
2017-11-03T04:46:27.615Z,101019
2017-11-03T04:48:56.684Z,101000
2017-11-03T04:51:25.313Z,101012
2017-11-03T04:53:57.664Z,101004
2017-11-03T04:56:27.859Z,101006
2017-11-03T04:58:57.479Z,101004
2017-11-03T05:01:28.028Z,101004
2017-11-03T05:03:57.808Z,101014
2017-11-03T05:06:26.561Z,101016
2017-11-03T05:08:56.300Z,101018
2017-11-03T05:11:26.964Z,101005
2017-11-03T05:13:56.391Z,101010
2017-11-03T05:16:25.924Z,101015
2017-11-03T05:18:54.593Z,101017
2017-11-03T05:21:23.447Z,101016
2017-11-03T05:23:52.608Z,101012
2017-11-03T05:26:22.873Z,101008
2017-11-03T05:28:52.139Z,101003
2017-11-03T05:31:20.799Z,101009
2017-11-03T05:33:49.092Z,101009
2017-11-03T05:36:19.408Z,101017
2017-11-03T05:38:49.049Z,101024
2017-11-03T05:41:17.964Z,101021
2017-11-03T05:43:47.360Z,101013
2017-11-03T05:46:16.392Z,101016
2017-11-03T05:48:46.004Z,101024
2017-11-03T05:51:18.734Z,101026
2017-11-03T05:53:48.412Z,101013
2017-11-03T05:56:17.062Z,101017
2017-11-03T05:58:46.377Z,101021
2017-11-03T06:01:14.680Z,101026
2017-11-03T06:03:43.632Z,101029
2017-11-03T06:06:13.428Z,101024
2017-11-03T06:08:48.432Z,101028
2017-11-03T06:11:17.413Z,101036
2017-11-03T06:13:46.774Z,101039
2017-11-03T06:16:17.558Z,101038
2017-11-03T06:18:46.522Z,101046
2017-11-03T06:21:15.469Z,101043
2017-11-03T06:23:44.513Z,101040
2017-11-03T06:26:13.477Z,101049
2017-11-03T06:28:43.767Z,101046
2017-11-03T06:31:13.130Z,101048
2017-11-03T06:33:42.184Z,101054
2017-11-03T06:36:10.748Z,101053
2017-11-03T06:38:40.552Z,101059
2017-11-03T06:41:10.080Z,101064
2017-11-03T06:43:38.525Z,101066
2017-11-03T06:46:07.472Z,101064
2017-11-03T06:48:38.419Z,101055
2017-11-03T06:51:07.866Z,101060
2017-11-03T06:53:37.232Z,101068
2017-11-03T06:56:06.776Z,101063
2017-11-03T06:58:35.427Z,101068
2017-11-03T07:01:03.780Z,101071
2017-11-03T07:03:33.664Z,101073
2017-11-03T07:06:02.629Z,101093
2017-11-03T07:08:31.047Z,101062
2017-11-03T07:10:59.357Z,101059
2017-11-03T07:13:28.597Z,101061
2017-11-03T07:15:57.250Z,101072
2017-11-03T07:18:25.604Z,101071
2017-11-03T07:20:55.148Z,101069
2017-11-03T07:23:25.841Z,101062
2017-11-03T07:25:55.143Z,101064
2017-11-03T07:28:24.476Z,101073
2017-11-03T07:30:54.313Z,101065
2017-11-03T07:33:23.373Z,101071
2017-11-03T07:35:52.635Z,101071
2017-11-03T07:38:21.761Z,101075
2017-11-03T07:40:51.991Z,101067
2017-11-03T07:43:20.921Z,101070
2017-11-03T07:45:50.247Z,101076
2017-11-03T07:48:19.823Z,101081
2017-11-03T07:50:49.044Z,101083
2017-11-03T07:53:18.733Z,101085
2017-11-03T07:55:47.418Z,101086
2017-11-03T07:58:17.212Z,101084
2017-11-03T08:00:46.592Z,101089
2017-11-03T08:03:16.948Z,101095
2017-11-03T08:05:47.245Z,101090
2017-11-03T08:08:16.935Z,101095
2017-11-03T08:10:51.588Z,101106
2017-11-03T08:13:20.911Z,101107
2017-11-03T08:15:50.592Z,101100
2017-11-03T08:18:19.504Z,101103
2017-11-03T08:20:47.838Z,101101
2017-11-03T08:23:17.721Z,101104
2017-11-03T08:25:51.725Z,101104
2017-11-03T08:28:20.376Z,101102
2017-11-03T08:30:49.732Z,101109
2017-11-03T08:33:18.060Z,101114
2017-11-03T08:35:47.464Z,101110
2017-11-03T08:38:16.486Z,101107
2017-11-03T08:40:45.054Z,101113
2017-11-03T08:43:14.096Z,101112
2017-11-03T08:45:43.171Z,101114
2017-11-03T08:48:12.444Z,101119
2017-11-03T08:50:41.109Z,101122
2017-11-03T08:53:10.201Z,101124
2017-11-03T08:55:40.695Z,101124
2017-11-03T08:58:10.267Z,101133
2017-11-03T09:00:38.959Z,101143
2017-11-03T09:03:07.712Z,101132
2017-11-03T09:05:37.278Z,101136
2017-11-03T09:08:06.052Z,101144
2017-11-03T09:10:35.520Z,101143
2017-11-03T09:13:05.303Z,101147
2017-11-03T09:15:33.772Z,101149
2017-11-03T09:18:03.831Z,101139
2017-11-03T09:20:33.103Z,101141
2017-11-03T09:23:01.776Z,101137
2017-11-03T09:25:31.271Z,101141
2017-11-03T09:28:02.049Z,101142
2017-11-03T09:30:31.171Z,101143
2017-11-03T09:33:00.676Z,101144
2017-11-03T09:35:29.019Z,101138
2017-11-03T09:38:00.168Z,101129
2017-11-03T09:40:30.964Z,101142
2017-11-03T09:43:00.072Z,101140
2017-11-03T09:45:29.944Z,101141
2017-11-03T09:48:00.708Z,101139
2017-11-03T09:50:30.296Z,101144
2017-11-03T09:53:00.212Z,101146
2017-11-03T09:55:29.735Z,101143
2017-11-03T09:57:59.831Z,101151
2017-11-03T10:00:29.208Z,101149
2017-11-03T10:02:58.659Z,101158
2017-11-03T10:05:27.601Z,101155
2017-11-03T10:07:58.269Z,101148
2017-11-03T10:10:28.132Z,101147
2017-11-03T10:12:58.078Z,101159
2017-11-03T10:15:27.970Z,101157
2017-11-03T10:17:58.276Z,101146
2017-11-03T10:20:30.725Z,101159
2017-11-03T10:23:00.812Z,101142
2017-11-03T10:25:29.564Z,101146
2017-11-03T10:28:03.824Z,101144
2017-11-03T10:30:32.902Z,101126
2017-11-03T10:33:06.640Z,101130
2017-11-03T10:35:36.300Z,101133
2017-11-03T10:38:05.813Z,101135
2017-11-03T10:40:35.224Z,101137
2017-11-03T10:43:04.662Z,101138
2017-11-03T10:45:33.192Z,101140
2017-11-03T10:48:02.112Z,101128
2017-11-03T10:50:32.913Z,101133
2017-11-03T10:53:01.589Z,101133
2017-11-03T10:55:30.724Z,101125
2017-11-03T10:58:00.046Z,101122
2017-11-03T11:00:29.380Z,101125
2017-11-03T11:02:59.645Z,101127
2017-11-03T11:05:27.995Z,101123
2017-11-03T11:07:58.688Z,101113
2017-11-03T11:10:27.420Z,101115
2017-11-03T11:12:57.544Z,101112
2017-11-03T11:15:26.429Z,101117
2017-11-03T11:17:56.817Z,101102
2017-11-03T11:20:25.603Z,101106
2017-11-03T11:22:54.976Z,101103
2017-11-03T11:25:30.241Z,101110
2017-11-03T11:28:01.257Z,101108
2017-11-03T11:30:29.783Z,101107
2017-11-03T11:32:58.915Z,101104
2017-11-03T11:35:28.391Z,101105
2017-11-03T11:37:57.077Z,101109
2017-11-03T11:40:27.760Z,101106
2017-11-03T11:42:56.400Z,101100
2017-11-03T11:45:26.261Z,101100
2017-11-03T11:47:56.329Z,101089
2017-11-03T11:50:25.557Z,101088
2017-11-03T11:52:54.264Z,101087
2017-11-03T11:55:23.597Z,101086
2017-11-03T11:57:53.756Z,101082
2017-11-03T12:00:22.894Z,101086
2017-11-03T12:02:52.152Z,101077
2017-11-03T12:05:20.945Z,101079
2017-11-03T12:07:49.938Z,101083
2017-11-03T12:10:19.198Z,101080
2017-11-03T12:12:47.916Z,101072
2017-11-03T12:15:16.472Z,101071
2017-11-03T12:17:47.947Z,101069
2017-11-03T12:20:17.563Z,101073
2017-11-03T12:22:46.221Z,101058
2017-11-03T12:25:15.545Z,101064
2017-11-03T12:27:44.517Z,101072
2017-11-03T12:30:14.074Z,101069
2017-11-03T12:32:44.710Z,101064
2017-11-03T12:35:14.904Z,101065
2017-11-03T12:37:43.838Z,101064
2017-11-03T12:40:13.244Z,101070
2017-11-03T12:42:42.658Z,101060
2017-11-03T12:45:12.505Z,101067
2017-11-03T12:47:42.670Z,101056
2017-11-03T12:50:11.836Z,101060
2017-11-03T12:52:42.635Z,101047
2017-11-03T12:55:12.842Z,101049
2017-11-03T12:57:42.143Z,101054
2017-11-03T13:00:11.352Z,101043
2017-11-03T13:02:41.074Z,101049
2017-11-03T13:05:10.428Z,101050
2017-11-03T13:07:39.971Z,101056
2017-11-03T13:10:11.164Z,101056
2017-11-03T13:12:39.849Z,101054
2017-11-03T13:15:10.813Z,101056
2017-11-03T13:17:40.566Z,101045
2017-11-03T13:20:09.574Z,101036
2017-11-03T13:22:39.269Z,101025
2017-11-03T13:25:08.317Z,101036
2017-11-03T13:27:39.067Z,101037
2017-11-03T13:30:07.525Z,101037
2017-11-03T13:32:37.146Z,101033
2017-11-03T13:35:06.431Z,101030
2017-11-03T13:37:34.932Z,101024
2017-11-03T13:40:03.554Z,101031
2017-11-03T13:42:32.632Z,101031
2017-11-03T13:45:03.062Z,101032
2017-11-03T13:47:32.124Z,101032
2017-11-03T13:50:04.909Z,101031
2017-11-03T13:52:35.920Z,101034
2017-11-03T13:55:05.037Z,101036
2017-11-03T13:57:35.956Z,101024
2017-11-03T14:00:06.195Z,101034
2017-11-03T14:02:35.927Z,101032
2017-11-03T14:05:05.239Z,101027
2017-11-03T14:07:33.972Z,101016
2017-11-03T14:10:02.812Z,101023
2017-11-03T14:12:31.954Z,101019
2017-11-03T14:15:01.455Z,101010
2017-11-03T14:17:30.492Z,100998
2017-11-03T14:19:59.576Z,101005
2017-11-03T14:22:27.949Z,101015
2017-11-03T14:24:56.256Z,101012
2017-11-03T14:27:25.286Z,101014
2017-11-03T14:29:53.921Z,101017
2017-11-03T14:32:23.269Z,101018
2017-11-03T14:34:52.222Z,101014
2017-11-03T14:37:23.663Z,101020
2017-11-03T14:39:53.826Z,101018
2017-11-03T14:42:22.889Z,101017
2017-11-03T14:44:51.520Z,101013
2017-11-03T14:47:21.220Z,101017
2017-11-03T14:49:50.535Z,101020
2017-11-03T14:52:27.561Z,101010
2017-11-03T14:54:56.350Z,101020
2017-11-03T14:57:25.388Z,101007
2017-11-03T14:59:54.545Z,101009
2017-11-03T15:02:24.784Z,101004
2017-11-03T15:04:54.068Z,101001
2017-11-03T15:07:27.508Z,101002
2017-11-03T15:09:56.321Z,101005
2017-11-03T15:12:25.740Z,101002
2017-11-03T15:14:54.312Z,100980
2017-11-03T15:17:24.483Z,100978
2017-11-03T15:19:53.727Z,100972
2017-11-03T15:22:24.521Z,100980
2017-11-03T15:24:53.429Z,100984
2017-11-03T15:27:22.648Z,100980
2017-11-03T15:29:54.254Z,100970
2017-11-03T15:32:24.809Z,100975
2017-11-03T15:34:54.315Z,100980
2017-11-03T15:37:24.259Z,100969
2017-11-03T15:39:53.672Z,100966
2017-11-03T15:42:23.446Z,100970
2017-11-03T15:44:52.312Z,100962
2017-11-03T15:47:21.771Z,100972
2017-11-03T15:49:50.508Z,100960
2017-11-03T15:52:23.596Z,100966
2017-11-03T15:54:52.968Z,100962
2017-11-03T15:57:22.816Z,100955
2017-11-03T15:59:52.965Z,100955
2017-11-03T16:02:22.548Z,100945
2017-11-03T16:04:53.876Z,100941
2017-11-03T16:07:23.764Z,100950
2017-11-03T16:09:55.961Z,100939
2017-11-03T16:12:25.171Z,100937
2017-11-03T16:14:54.796Z,100944
2017-11-03T16:17:25.639Z,100939
2017-11-03T16:19:54.620Z,100939
2017-11-03T16:22:23.324Z,100944
2017-11-03T16:24:52.164Z,100936
2017-11-03T16:27:21.049Z,100935
2017-11-03T16:29:51.744Z,100936
2017-11-03T16:32:20.736Z,100936
2017-11-03T16:34:51.054Z,100933
2017-11-03T16:37:19.955Z,100933
2017-11-03T16:39:49.139Z,100931
2017-11-03T16:42:17.800Z,100937
2017-11-03T16:44:46.828Z,100933
2017-11-03T16:47:16.362Z,100926
2017-11-03T16:49:45.805Z,100935
2017-11-03T16:52:15.887Z,100933
2017-11-03T16:54:47.813Z,100930
2017-11-03T16:57:17.555Z,100931
2017-11-03T16:59:46.590Z,100931
2017-11-03T17:02:17.504Z,100926
2017-11-03T17:04:47.188Z,100897
2017-11-03T17:07:15.670Z,100924
2017-11-03T17:09:44.389Z,100930
2017-11-03T17:12:14.317Z,100924
2017-11-03T17:14:44.845Z,100931
2017-11-03T17:17:14.297Z,100937
2017-11-03T17:19:44.182Z,100923
2017-11-03T17:22:12.724Z,100923
2017-11-03T17:24:44.126Z,100915
2017-11-03T17:27:13.653Z,100921
2017-11-03T17:29:43.812Z,100924
2017-11-03T17:32:12.979Z,100923
2017-11-03T17:34:42.705Z,100929
2017-11-03T17:37:12.704Z,100917
2017-11-03T17:39:41.588Z,100919
2017-11-03T17:42:11.372Z,100909
2017-11-03T17:44:40.165Z,100904
2017-11-03T17:47:08.760Z,100912
2017-11-03T17:49:38.124Z,100898
2017-11-03T17:52:07.944Z,100909
2017-11-03T17:54:41.333Z,100905
2017-11-03T17:57:10.952Z,100908
2017-11-03T17:59:40.605Z,100905
2017-11-03T18:02:10.374Z,100900
2017-11-03T18:04:41.633Z,100887
2017-11-03T18:07:11.168Z,100891
2017-11-03T18:09:39.712Z,100893
2017-11-03T18:12:08.800Z,100894
2017-11-03T18:14:38.257Z,100889
2017-11-03T18:17:06.645Z,100883
2017-11-03T18:19:36.435Z,100877
2017-11-03T18:22:10.435Z,100873
2017-11-03T18:24:42.757Z,100886
2017-11-03T18:27:11.288Z,100882
2017-11-03T18:29:40.362Z,100881
2017-11-03T18:32:09.200Z,100887
2017-11-03T18:34:40.728Z,100888
2017-11-03T18:37:09.486Z,100887
2017-11-03T18:39:43.371Z,100879
2017-11-03T18:42:14.004Z,100883
2017-11-03T18:44:42.653Z,100888
2017-11-03T18:47:11.450Z,100871
2017-11-03T18:49:40.480Z,100881
2017-11-03T18:52:10.072Z,100878
2017-11-03T18:54:40.141Z,100882
2017-11-03T18:57:09.793Z,100882
2017-11-03T18:59:40.441Z,100870
2017-11-03T19:02:19.713Z,100873
2017-11-03T19:04:49.400Z,100875
2017-11-03T19:07:18.850Z,100867
2017-11-03T19:09:49.133Z,100878
2017-11-03T19:12:18.989Z,100874
2017-11-03T19:14:49.318Z,100868
2017-11-03T19:17:18.388Z,100872
2017-11-03T19:19:48.770Z,100866
2017-11-03T19:22:18.207Z,100864
2017-11-03T19:24:46.619Z,100863
2017-11-03T19:27:15.417Z,100866
2017-11-03T19:29:47.897Z,100870
2017-11-03T19:32:16.886Z,100856
2017-11-03T19:34:45.633Z,100861
2017-11-03T19:37:16.748Z,100862
2017-11-03T19:39:45.549Z,100870
2017-11-03T19:42:15.052Z,100862
2017-11-03T19:44:43.707Z,100867
2017-11-03T19:47:12.364Z,100868
2017-11-03T19:49:41.481Z,100870
2017-11-03T19:52:13.965Z,100869
2017-11-03T19:54:43.244Z,100871
2017-11-03T19:57:12.972Z,100868
2017-11-03T19:59:43.460Z,100860
2017-11-03T20:02:12.420Z,100850
2017-11-03T20:04:42.940Z,100851
2017-11-03T20:07:13.343Z,100862
2017-11-03T20:09:42.391Z,100867
2017-11-03T20:12:11.623Z,100867
2017-11-03T20:14:41.519Z,100862
2017-11-03T20:17:11.160Z,100864
2017-11-03T20:19:42.849Z,100860
2017-11-03T20:22:12.581Z,100863
2017-11-03T20:24:41.285Z,100853
2017-11-03T20:27:10.683Z,100854
2017-11-03T20:29:40.146Z,100856
2017-11-03T20:32:09.181Z,100860
2017-11-03T20:34:38.698Z,100859
2017-11-03T20:37:07.260Z,100860
2017-11-03T20:39:36.441Z,100862
2017-11-03T20:42:04.819Z,100858
2017-11-03T20:44:34.336Z,100854
2017-11-03T20:47:06.561Z,100858
2017-11-03T20:49:36.098Z,100844
2017-11-03T20:52:04.773Z,100848
2017-11-03T20:54:33.737Z,100851
2017-11-03T20:57:07.600Z,100838
2017-11-03T20:59:37.397Z,100849
2017-11-03T21:02:06.880Z,100850
2017-11-03T21:04:36.184Z,100838
2017-11-03T21:07:04.797Z,100844
2017-11-03T21:09:34.259Z,100837
2017-11-03T21:12:03.559Z,100834
2017-11-03T21:14:32.477Z,100835
2017-11-03T21:17:01.996Z,100837
2017-11-03T21:19:31.693Z,100838
2017-11-03T21:22:00.980Z,100831
2017-11-03T21:24:30.025Z,100829
2017-11-03T21:27:00.173Z,100827
2017-11-03T21:29:30.872Z,100834
2017-11-03T21:32:01.177Z,100827
2017-11-03T21:34:29.512Z,100825
2017-11-03T21:36:58.783Z,100829
2017-11-03T21:39:28.276Z,100820
2017-11-03T21:41:57.926Z,100825
2017-11-03T21:44:27.230Z,100826
2017-11-03T21:46:55.814Z,100818
2017-11-03T21:49:25.351Z,100819
2017-11-03T21:51:55.551Z,100816
2017-11-03T21:54:24.035Z,100823
2017-11-03T21:56:53.124Z,100821
2017-11-03T21:59:22.008Z,100806
2017-11-03T22:01:51.679Z,100822
2017-11-03T22:04:20.385Z,100809
2017-11-03T22:06:50.784Z,100820
2017-11-03T22:09:20.932Z,100804
2017-11-03T22:11:49.334Z,100803
2017-11-03T22:14:17.966Z,100802
2017-11-03T22:16:47.193Z,100805
2017-11-03T22:19:17.322Z,100803
2017-11-03T22:21:46.106Z,100800
2017-11-03T22:24:16.247Z,100801
2017-11-03T22:26:45.504Z,100803
2017-11-03T22:29:14.852Z,100800
2017-11-03T22:31:49.237Z,100800
2017-11-03T22:34:24.352Z,100797
2017-11-03T22:36:53.468Z,100804
2017-11-03T22:39:22.992Z,100799
2017-11-03T22:41:52.587Z,100795
2017-11-03T22:44:24.313Z,100797
2017-11-03T22:46:55.056Z,100794
2017-11-03T22:49:23.657Z,100799
2017-11-03T22:51:52.311Z,100797
2017-11-03T22:54:21.991Z,100801
2017-11-03T22:56:51.020Z,100804
2017-11-03T22:59:19.656Z,100794
2017-11-03T23:01:48.588Z,100794
2017-11-03T23:04:17.310Z,100798
2017-11-03T23:06:46.499Z,100784
2017-11-03T23:09:16.572Z,100787
2017-11-03T23:11:45.777Z,100788
2017-11-03T23:14:14.124Z,100785
2017-11-03T23:16:43.856Z,100782
2017-11-03T23:19:12.805Z,100784
2017-11-03T23:21:42.517Z,100786
2017-11-03T23:24:12.040Z,100787
2017-11-03T23:26:41.720Z,100784
2017-11-03T23:29:12.182Z,100780
2017-11-03T23:31:41.148Z,100779
2017-11-03T23:34:11.208Z,100774
2017-11-03T23:36:39.856Z,100776
2017-11-03T23:39:09.376Z,100781
2017-11-03T23:41:38.384Z,100782
2017-11-03T23:44:07.540Z,100776
2017-11-03T23:46:36.560Z,100778
2017-11-03T23:49:05.768Z,100780
2017-11-03T23:51:34.623Z,100770
2017-11-03T23:54:07.648Z,100779
2017-11-03T23:56:36.632Z,100775
2017-11-03T23:59:06.744Z,100774
